Round Potrero (157, 6923) Station Data

Red Flag Warning: No
Fire Weather Zone: 250
SDGE Region: Mountain Empire
Lat/Lon: 32.648/-116.631

Observations

Time Wind Speed/Gust Temp(F) RH Fuel Moist Fuel Temp(F) Dewpt(F) Tmax(F) Tmin(F) Accum Precip 10-min Precip SL Press(mb)
4/26 2:50am 245 3 G 5 52° 67% - - 42° 54° 49.9° - - -
4/26 2:40am 118 1 G 3 51° 71% - - 42° 54° 49.9° - - -
4/26 2:30am 87 1 G 3 50° 72% - - 42° 54° 49.9° - - -
4/26 2:20am 85 2 G 5 51° 69% - - 41° 54° 49.9° - - -
4/26 2:10am 277 0 G 1 52° 67% - - 42° 54° 50.3° - - -
4/26 2:00am 107 1 G 2 52° 67% - - 42° 54° 50.3° - - -
4/26 1:50am 178 1 G 3 52° 68% - - 42° 54° 50.3° - - -
4/26 1:40am 111 1 G 2 52° 71% - - 42° 54° 50.3° - - -
4/26 1:30am 90 0 G 1 51° 71% - - 42° 54° 50.3° - - -
4/26 1:20am 274 1 G 3 51° 71% - - 42° 54° 50.3° - - -
4/26 1:10am 104 1 G 2 51° 71% - - 42° 54° 50.3° - - -
4/26 1:00am 151 2 G 4 53° 67% - - 42° 54° 50.3° - - -
4/26 12:50am 249 2 G 4 51° 71% - - 42° 52.4° 50.3° - - -
4/26 12:40am 75 1 G 3 51° 72% - - 42° 52.4° 50.3° - - -
4/26 12:30am 105 2 G 3 51° 71% - - 42° 52.4° 50.8° - - -
4/26 12:20am 89 2 G 3 52° 70% - - 42° 52.4° 51° - - -
4/26 12:10am 243 2 G 4 52° 71% - - 43° 52.4° 51° - - -
4/26 12:00am 251 1 G 3 51° 72% - - 42° 60.9° 49.1° - - -
4/25 11:50pm 85 2 G 2 51° 71% - - 42° 60.9° 49.1° - - -
4/25 11:40pm 95 1 G 3 51° 71% - - 42° 60.9° 49.1° - - -
4/25 11:30pm 114 2 G 4 51° 71% - - 42° 60.9° 49.1° - - -
4/25 11:20pm 93 3 G 5 52° 70% - - 42° 60.9° 49.1° - - -
4/25 11:10pm 123 2 G 4 51° 70% - - 42° 60.9° 49.1° - - -
4/25 11:00pm 111 3 G 4 51° 72% - - 42° 60.9° 49.1° - - -
4/25 10:50pm 78 2 G 3 50° 73% - - 42° 60.9° 49.1° - - -
4/25 10:40pm 69 2 G 3 50° 72% - - 42° 60.9° 49.1° - - -
4/25 10:30pm 106 1 G 3 51° 70% - - 42° 60.9° 49.1° - - -
4/25 10:20pm 268 1 G 5 52° 69% - - 42° 60.9° 49.1° - - -
4/25 10:10pm 104 1 G 3 52° 69% - - 42° 60.9° 49.1° - - -
4/25 10:00pm 230 1 G 3 52° 69% - - 42° 60.9° 49.1° - - -
4/25 9:50pm 193 2 G 6 52° 69% - - 42° 60.9° 49.1° - - -
4/25 9:40pm 210 1 G 3 52° 69% - - 42° 60.9° 49.1° - - -
4/25 9:30pm 139 2 G 4 52° 70% - - 42° 60.9° 49.1° - - -
4/25 9:20pm 143 1 G 3 52° 69% - - 42° 60.9° 49.1° - - -
4/25 9:10pm 209 4 G 9 52° 69% - - 42° 60.9° 49.1° - - -
4/25 9:00pm 261 6 G 8 52° 69% - - 43° 60.9° 49.1° - - -
4/25 8:50pm 264 6 G 7 52° 70% - - 43° 60.9° 49.1° - - -
4/25 8:40pm 271 6 G 7 53° 70% - - 43° 60.9° 49.1° - - -
4/25 8:30pm 254 5 G 9 53° 70% - - 43° 60.9° 49.1° - - -
4/25 8:20pm 263 4 G 7 53° 69% - - 43° 60.9° 49.1° - - -
4/25 8:10pm 262 5 G 8 53° 70% - - 44° 60.9° 49.1° - - -
4/25 8:00pm 243 4 G 7 53° 70% - - 44° 60.9° 49.1° - - -
4/25 7:50pm 263 4 G 8 54° 70% - - 44° 60.9° 49.1° - - -
4/25 7:40pm 262 5 G 10 54° 70% - - 44° 60.9° 49.1° - - -
4/25 7:30pm 269 7 G 12 54° 70% - - 45° 60.9° 49.1° - - -
4/25 7:20pm 275 9 G 14 54° 71% - - 45° 60.9° 49.1° - - -
4/25 7:10pm 275 9 G 13 54° 71% - - 45° 60.9° 49.1° - - -
4/25 7:00pm 276 10 G 13 54° 72% - - 45° 60.9° 49.1° - - -
4/25 6:50pm 267 9 G 13 54° 73% - - 46° 60.9° 49.1° - - -
4/25 6:40pm 266 10 G 15 54° 74% - - 46° 60.9° 49.1° - - -
4/25 6:30pm 270 10 G 14 55° 73% - - 46° 60.9° 49.1° - - -
4/25 6:20pm 266 10 G 15 55° 73% - - 46° 60.9° 49.1° - - -
4/25 6:10pm 266 12 G 16 55° 72% - - 46° 60.9° 49.1° - - -
4/25 6:00pm 270 13 G 20 55° 72% - - 46° 60.9° 49.1° - - -
4/25 5:50pm 275 12 G 18 56° 70% - - 46° 60.9° 49.1° - - -
4/25 5:40pm 275 13 G 19 56° 69% - - 46° 60.9° 49.1° - - -
4/25 5:30pm 276 11 G 17 56° 68% - - 46° 60.9° 49.1° - - -
4/25 5:20pm 264 11 G 16 56° 67% - - 46° 60.9° 49.1° - - -
4/25 5:10pm 266 11 G 15 57° 68% - - 46° 60.9° 49.1° - - -
4/25 5:00pm 268 14 G 21 57° 68% - - 46° 60.9° 49.1° - - -
4/25 4:50pm 272 13 G 18 57° 67% - - 46° 60.9° 49.1° - - -
4/25 4:40pm 270 12 G 17 57° 66% - - 46° 60.9° 49.1° - - -
4/25 4:30pm 274 13 G 19 57° 66% - - 46° 60.9° 49.1° - - -
4/25 4:20pm 274 14 G 19 58° 64% - - 45° 60.9° 49.1° - - -
4/25 4:10pm 279 14 G 21 58° 62% - - 45° 60.9° 49.1° - - -
4/25 4:00pm 274 13 G 21 58° 63% - - 45° 60.9° 49.1° - - -
4/25 3:50pm 274 12 G 19 58° 63% - - 45° 60.9° 49.1° - - -
4/25 3:40pm 279 12 G 19 58° 62% - - 45° 60.9° 49.1° - - -
4/25 3:30pm 267 10 G 16 59° 62% - - 46° 60.9° 49.1° - - -
4/25 3:20pm 270 10 G 16 59° 62% - - 46° 60.9° 49.1° - - -
4/25 3:10pm 264 11 G 18 59° 62% - - 46° 60.9° 49.1° - - -
4/25 3:00pm 276 11 G 18 59° 61% - - 45° 60.9° 49.1° - - -
4/25 2:50pm 274 11 G 18 59° 61% - - 46° 60.9° 49.1° - - -
4/25 2:40pm 268 13 G 18 59° 61% - - 46° 60.9° 49.1° - - -
4/25 2:30pm 268 9 G 20 59° 60% - - 45° 60.9° 49.1° - - -
4/25 2:20pm 272 12 G 19 59° 61% - - 46° 60.9° 49.1° - - -
4/25 2:10pm 277 11 G 18 60° 60% - - 46° 60.9° 49.1° - - -
4/25 2:00pm 277 12 G 21 60° 60% - - 46° 60.9° 49.1° - - -
4/25 1:50pm 273 10 G 17 60° 58% - - 45° 60.9° 49.1° - - -
4/25 1:40pm 276 12 G 19 60° 57% - - 45° 60.9° 49.1° - - -
4/25 1:30pm 270 13 G 24 60° 56% - - 44° 60.9° 49.1° - - -
4/25 1:20pm 270 12 G 20 60° 56% - - 44° 60.9° 49.1° - - -
4/25 1:10pm 271 12 G 22 60° 55% - - 44° 60.7° 49.1° - - -
4/25 1:00pm 273 15 G 21 60° 53% - - 43° 60.7° 49.1° - - -
4/25 12:50pm 269 15 G 20 60° 52% - - 42° 60.7° 49.1° - - -
4/25 12:40pm 269 13 G 20 60° 52% - - 42° 60.7° 49.1° - - -
4/25 12:30pm 274 13 G 23 60° 52% - - 42° 60.7° 49.1° - - -
4/25 12:20pm 273 13 G 22 60° 53% - - 43° 60.3° 49.1° - - -
4/25 12:10pm 273 13 G 22 59° 54% - - 42° 59.8° 49.1° - - -
4/25 12:00pm 271 13 G 20 59° 55% - - 43° 59.7° 49.1° - - -
4/25 11:50am 275 10 G 18 59° 55% - - 43° 59.5° 49.1° - - -
4/25 11:40am 271 12 G 20 58° 57% - - 43° 58.6° 49.1° - - -
4/25 11:30am 276 10 G 20 58° 57% - - 43° 58.5° 49.1° - - -
4/25 11:20am 268 10 G 18 57° 58% - - 43° 58.1° 49.1° - - -
4/25 11:10am 264 12 G 19 57° 59% - - 43° 57.8° 49.1° - - -
4/25 11:00am 260 9 G 24 57° 60% - - 43° 57.7° 49.1° - - -
4/25 10:50am 271 11 G 19 56° 60% - - 43° 57.1° 49.1° - - -
4/25 10:40am 270 13 G 21 56° 63% - - 44° 57.1° 49.1° - - -
4/25 10:30am 276 13 G 20 57° 62% - - 44° 57.1° 49.1° - - -
4/25 10:20am 271 15 G 23 56° 61% - - 43° 56.7° 49.1° - - -
4/25 10:10am 272 15 G 24 56° 64% - - 44° 56.6° 49.1° - - -
4/25 10:00am 272 14 G 21 55° 67% - - 45° 56° 49.1° - - -
4/25 9:50am 263 15 G 22 55° 71% - - 46° 55.7° 49.1° - - -
4/25 9:40am 277 13 G 18 55° 69% - - 45° 55.7° 49.1° - - -
4/25 9:30am 272 11 G 18 54° 69% - - 44° 55.1° 49.1° - - -
4/25 9:20am 271 9 G 14 54° 72% - - 45° 54.3° 49.1° - - -
4/25 9:10am 265 8 G 14 53° 72% - - 45° 54.1° 49.1° - - -
4/25 9:00am 260 8 G 12 53° 73% - - 45° 54° 49.1° - - -
4/25 8:50am 261 7 G 12 52° 77% - - 46° 53.4° 49.1° - - -
4/25 8:40am 271 8 G 11 52° 79% - - 46° 52.6° 49.1° - - -
4/25 8:30am 274 8 G 12 52° 82% - - 46° 51.9° 49.1° - - -
4/25 8:20am 281 6 G 10 51° 87% - - 47° 51.5° 49.1° - - -
4/25 8:10am 281 7 G 9 51° 91% - - 48° 50.8° 49.1° - - -
4/25 8:00am 289 5 G 8 50° 92% - - 48° 50.6° 49.1° - - -
4/25 7:50am 276 5 G 8 50° 92% - - 48° 50.6° 49.1° - - -
4/25 7:40am 274 5 G 8 50° 92% - - 48° 50.6° 49.1° - - -
4/25 7:30am 257 5 G 8 50° 92% - - 48° 50.6° 49.1° - - -
4/25 7:20am 259 5 G 8 50° 93% - - 48° 50.3° 49.1° - - -
4/25 7:10am 260 5 G 8 50° 93% - - 48° 50.3° 49.1° - - -
4/25 7:00am 252 6 G 9 50° 93% - - 48° 50.3° 49.1° - - -
4/25 6:50am 253 5 G 8 50° 93% - - 48° 50.3° 49.1° - - -
4/25 6:40am 256 5 G 8 50° 93% - - 48° 50.3° 49.1° - - -
4/25 6:30am 254 5 G 8 50° 93% - - 48° 50.3° 49.1° - - -
4/25 6:20am 254 5 G 9 50° 92% - - 47° 50.3° 49.1° - - -
4/25 6:10am 245 5 G 8 50° 92% - - 47° 50.3° 49.1° - - -
4/25 6:00am 243 4 G 9 50° 92% - - 47° 50.3° 49.1° - - -
4/25 5:50am 238 4 G 8 50° 92% - - 48° 50.3° 49.1° - - -
4/25 5:40am 235 4 G 7 50° 93% - - 48° 50.3° 49.1° - - -
4/25 5:30am 248 4 G 8 50° 93% - - 48° 50.3° 49.1° - - -
4/25 5:20am 245 4 G 7 50° 93% - - 48° 50.3° 49.1° - - -
4/25 5:10am 247 4 G 6 50° 93% - - 48° 50.3° 49.1° - - -
4/25 5:00am 264 4 G 7 49° 93% - - 48° 50.3° 49.1° - - -
4/25 4:50am 245 5 G 9 49° 93% - - 48° 50.3° 49.1° - - -
4/25 4:40am 251 4 G 8 50° 93% - - 48° 50.3° 49.1° - - -
4/25 4:30am 242 3 G 5 50° 93% - - 48° 50.3° 49.1° - - -
4/25 4:20am 254 4 G 6 49° 93% - - 48° 50.3° 49.1° - - -
4/25 4:10am 251 3 G 5 49° 93% - - 48° 50.3° 49.1° - - -
4/25 4:00am 241 3 G 8 49° 94% - - 48° 50.3° 49.1° - - -
4/25 3:50am 231 3 G 7 49° 94% - - 48° 50.3° 49.1° - - -
4/25 3:40am 251 3 G 6 49° 94% - - 48° 50.3° 49.1° - - -
4/25 3:30am 254 4 G 8 49° 94% - - 48° 50.3° 49.1° - - -
4/25 3:20am 252 5 G 9 49° 94% - - 48° 50.3° 49.2° - - -
4/25 3:10am 248 6 G 9 49° 94% - - 48° 50.3° 49.2° - - -
4/25 3:00am 248 5 G 10 50° 94% - - 48° 50.3° 49.2° - - -
4/25 2:50am 258 6 G 9 49° 93% - - 48° 50.3° 49.2° - - -
4/25 2:40am 257 5 G 10 50° 93% - - 48° 50.3° 49.2° - - -
4/25 2:30am 253 6 G 9 50° 93% - - 48° 50.3° 49.2° - - -
4/25 2:20am 247 6 G 10 50° 93% - - 47° 50.3° 49.2° - - -
4/25 2:10am 247 5 G 9 50° 92% - - 47° 50.3° 49.2° - - -
4/25 2:00am 251 4 G 7 49° 92% - - 47° 50.3° 49.2° - - -
4/25 1:50am 223 5 G 10 49° 92% - - 47° 50.3° 49.2° - - -
4/25 1:40am 248 3 G 6 50° 92% - - 47° 50.3° 49.2° - - -
4/25 1:30am 241 4 G 8 50° 92% - - 47° 50.3° 49.2° - - -
4/25 1:20am 237 5 G 10 50° 92% - - 47° 50.3° 49.2° - - -
4/25 1:10am 243 4 G 9 50° 89% - - 47° 50.3° 49.2° - - -
4/25 1:00am 251 3 G 6 50° 87% - - 46° 50.3° 49.2° - - -
4/25 12:50am 229 2 G 5 50° 89% - - 47° 50.2° 49.2° - - -
4/25 12:40am 248 2 G 5 50° 91% - - 47° 50° 49.2° - - -
4/25 12:30am 225 3 G 7 50° 91% - - 47° 50° 49.2° - - -
4/25 12:20am 232 3 G 8 49° 91% - - 47° 49.8° 49.2° - - -
4/25 12:10am 250 7 G 10 49° 92% - - 47° 49.5° 49.2° - - -
4/25 12:00am 265 7 G 10 49° 91% - - 47° 64.8° 44.4° - - -
4/24 11:50pm 258 7 G 10 49° 91% - - 47° 64.8° 44.4° - - -
4/24 11:40pm 263 9 G 13 49° 91% - - 47° 64.8° 44.4° - - -
4/24 11:30pm 267 9 G 13 49° 92% - - 47° 64.8° 44.4° - - -
4/24 11:20pm 267 9 G 12 49° 91% - - 47° 64.8° 44.4° - - -
4/24 11:10pm 257 5 G 11 50° 84% - - 46° 64.8° 44.4° - - -
4/24 11:00pm 228 3 G 7 50° 84% - - 45° 64.8° 44.4° - - -
4/24 10:50pm 258 4 G 6 50° 86% - - 46° 64.8° 44.4° - - -
4/24 10:40pm 268 4 G 7 50° 90% - - 47° 64.8° 44.4° - - -
4/24 10:30pm 268 5 G 7 50° 86% - - 47° 64.8° 44.4° - - -
4/24 10:20pm 271 4 G 7 51° 84% - - 46° 64.8° 44.4° - - -
4/24 10:10pm 267 3 G 5 51° 84% - - 46° 64.8° 44.4° - - -
4/24 10:00pm 260 4 G 6 51° 83% - - 46° 64.8° 44.4° - - -
4/24 9:50pm 244 4 G 6 51° 83% - - 46° 64.8° 44.4° - - -
4/24 9:40pm 255 4 G 7 51° 84% - - 47° 64.8° 44.4° - - -
4/24 9:30pm 260 4 G 7 51° 85% - - 47° 64.8° 44.4° - - -
4/24 9:20pm 252 4 G 8 52° 89% - - 48° 64.8° 44.4° - - -
4/24 9:10pm 261 6 G 9 52° 90% - - 49° 64.8° 44.4° - - -
4/24 9:00pm 266 7 G 10 52° 88% - - 48° 64.8° 44.4° - - -
4/24 8:50pm 258 6 G 10 52° 85% - - 48° 64.8° 44.4° - - -
4/24 8:40pm 254 3 G 6 52° 83% - - 47° 64.8° 44.4° - - -
4/24 8:30pm 269 3 G 7 52° 82% - - 47° 64.8° 44.4° - - -
4/24 8:20pm 256 2 G 5 53° 81% - - 47° 64.8° 44.4° - - -
4/24 8:10pm 242 3 G 5 53° 80% - - 47° 64.8° 44.4° - - -
4/24 8:00pm 256 3 G 4 53° 79% - - 47° 64.8° 44.4° - - -
4/24 7:50pm 239 3 G 5 53° 78% - - 47° 64.8° 44.4° - - -
4/24 7:40pm 239 4 G 7 54° 77% - - 47° 64.8° 44.4° - - -
4/24 7:30pm 260 6 G 10 54° 74% - - 46° 64.8° 44.4° - - -
4/24 7:20pm 270 9 G 13 55° 71% - - 46° 64.8° 44.4° - - -
4/24 7:10pm 272 9 G 13 55° 70% - - 46° 64.8° 44.4° - - -
4/24 7:00pm 277 10 G 13 56° 69% - - 46° 64.8° 44.4° - - -
4/24 6:50pm 275 10 G 13 57° 67% - - 46° 64.8° 44.4° - - -
4/24 6:40pm 278 9 G 13 57° 66% - - 46° 64.8° 44.4° - - -
4/24 6:30pm 274 10 G 14 58° 64% - - 45° 64.8° 44.4° - - -
4/24 6:20pm 265 10 G 15 58° 62% - - 45° 64.8° 44.4° - - -
4/24 6:10pm 271 11 G 15 58° 62% - - 45° 64.8° 44.4° - - -
4/24 6:00pm 263 12 G 15 59° 61% - - 45° 64.8° 44.4° - - -